Time;durP1;ratioP1;P1;durP2;ratioP2;P2;SDS_P1;SDS_P2;PMS_P1;PMS_P2;Temp;Humidity;BMP_temperature;BMP_pressure;BME280_temperature;BME280_humidity;BME280_pressure;Samples;Min_cycle;Max_cycle;Signal;HPM_P1;HPM_P2
2021/11/16 00:02:13;;;;;;;26.47;16.87;;;8.70;99.90;;;;;;5064359;28;20205;-50
2021/11/16 00:04:39;;;;;;;21.23;15.25;;;8.70;99.90;;;;;;5047315;28;20221;-50
2021/11/16 00:07:06;;;;;;;24.13;15.70;;;8.60;99.90;;;;;;5050414;28;20214;-50
2021/11/16 00:09:32;;;;;;;23.92;15.75;;;8.90;99.90;;;;;;5039695;28;20205;-50
2021/11/16 00:11:58;;;;;;;22.23;15.20;;;8.80;99.90;;;;;;5055776;28;20298;-50
2021/11/16 00:14:23;;;;;;;27.33;16.27;;;9.10;99.90;;;;;;5050479;28;20300;-50
2021/11/16 00:16:49;;;;;;;27.97;17.20;;;8.60;99.90;;;;;;5054462;28;20190;-50
2021/11/16 00:19:16;;;;;;;25.27;16.60;;;8.70;99.90;;;;;;5049968;28;20193;-50
2021/11/16 00:21:44;;;;;;;26.17;16.48;;;8.60;99.90;;;;;;5069529;28;20232;-50
2021/11/16 00:24:14;;;;;;;21.70;15.40;;;8.60;99.90;;;;;;5043515;28;20185;-50
2021/11/16 00:26:43;;;;;;;26.27;18.02;;;8.60;99.90;;;;;;5063538;28;20189;-50
2021/11/16 00:29:09;;;;;;;27.00;17.15;;;8.70;99.90;;;;;;5059513;28;20184;-50
2021/11/16 00:31:35;;;;;;;24.23;16.27;;;8.40;99.90;;;;;;5051449;28;20213;-50
2021/11/16 00:34:02;;;;;;;24.23;16.73;;;8.40;99.90;;;;;;5050285;28;20452;-50
2021/11/16 00:36:29;;;;;;;27.58;17.38;;;8.40;99.90;;;;;;5063914;28;20185;-50
2021/11/16 00:38:55;;;;;;;22.95;16.27;;;8.50;99.90;;;;;;5063561;28;20300;-50
2021/11/16 00:41:22;;;;;;;29.50;17.40;;;8.30;99.90;;;;;;5074707;28;20207;-50
2021/11/16 00:43:47;;;;;;;24.80;16.80;;;8.30;99.90;;;;;;5076772;28;20185;-50
2021/11/16 00:46:13;;;;;;;25.70;16.60;;;8.60;99.90;;;;;;5062530;28;20647;-50
2021/11/16 00:48:39;;;;;;;28.63;17.53;;;8.50;99.90;;;;;;5057776;28;20211;-50
2021/11/16 00:51:07;;;;;;;28.77;17.63;;;8.70;99.90;;;;;;5076794;28;20995;-50
2021/11/16 00:53:36;;;;;;;26.95;17.63;;;8.50;99.90;;;;;;5066571;28;20186;-56
2021/11/16 00:56:04;;;;;;;26.10;17.10;;;8.40;99.90;;;;;;5036954;28;20212;-56
2021/11/16 00:58:30;;;;;;;25.95;17.52;;;8.90;99.90;;;;;;5063168;28;20287;-55
2021/11/16 01:00:56;;;;;;;24.15;16.35;;;8.80;99.90;;;;;;5054924;28;20299;-58
2021/11/16 01:03:22;;;;;;;26.27;16.97;;;8.60;99.90;;;;;;5048965;28;20226;-53
2021/11/16 01:05:48;;;;;;;25.30;16.30;;;8.30;99.90;;;;;;5047176;28;20436;-53
2021/11/16 01:08:14;;;;;;;31.53;18.43;;;8.50;99.90;;;;;;5057364;28;20669;-53
2021/11/16 01:10:42;;;;;;;29.40;17.08;;;8.60;99.90;;;;;;5049263;28;20209;-53
2021/11/16 01:13:08;;;;;;;25.98;15.95;;;8.50;99.90;;;;;;5053221;28;20235;-53
2021/11/16 01:15:36;;;;;;;23.27;15.50;;;8.40;99.90;;;;;;5067966;28;20307;-54
2021/11/16 01:18:03;;;;;;;24.75;16.42;;;8.70;99.90;;;;;;5048222;28;20253;-53
2021/11/16 01:20:29;;;;;;;19.48;14.30;;;8.60;99.90;;;;;;5055892;28;20201;-53
2021/11/16 01:22:57;;;;;;;29.40;16.70;;;8.50;99.90;;;;;;5035229;28;20182;-53
2021/11/16 01:25:26;;;;;;;24.75;15.80;;;8.50;99.90;;;;;;5053069;28;20429;-54
2021/11/16 01:27:54;;;;;;;21.50;15.57;;;8.10;99.90;;;;;;5058185;28;20189;-53
2021/11/16 01:30:22;;;;;;;25.65;16.67;;;8.40;99.90;;;;;;5056212;28;20232;-54
2021/11/16 01:33:09;;;;;;;23.27;16.25;;;8.50;99.90;;;;;;5048153;28;20181;-54
2021/11/16 01:35:37;;;;;;;25.23;17.20;;;8.30;99.90;;;;;;5056225;28;20299;-53
2021/11/16 01:38:05;;;;;;;25.27;15.73;;;8.50;99.90;;;;;;5054121;28;20287;-53
2021/11/16 01:40:32;;;;;;;25.17;17.13;;;8.30;99.90;;;;;;5056747;28;20567;-53
2021/11/16 01:42:59;;;;;;;24.95;16.90;;;8.50;99.90;;;;;;5055960;28;20181;-52
2021/11/16 01:45:26;;;;;;;22.50;15.98;;;8.10;99.90;;;;;;5064597;28;20211;-53
2021/11/16 01:47:51;;;;;;;27.73;15.68;;;8.30;99.90;;;;;;5065509;28;20192;-53
2021/11/16 01:50:19;;;;;;;23.17;15.67;;;8.30;99.90;;;;;;5054934;28;20202;-54
2021/11/16 01:52:45;;;;;;;21.92;15.15;;;8.60;99.90;;;;;;5052412;28;20235;-52
2021/11/16 01:55:13;;;;;;;22.65;15.77;;;8.40;99.90;;;;;;5041009;28;20217;-53
2021/11/16 01:57:39;;;;;;;24.10;16.60;;;8.00;99.90;;;;;;5051452;28;20190;-54
2021/11/16 02:00:10;;;;;;;23.00;16.70;;;8.40;99.90;;;;;;5052909;28;20205;-54
2021/11/16 02:02:36;;;;;;;25.35;16.38;;;8.40;99.90;;;;;;5049044;28;20221;-55
2021/11/16 02:05:02;;;;;;;22.50;15.15;;;8.00;99.90;;;;;;5052978;28;20197;-54
2021/11/16 02:07:28;;;;;;;21.65;14.18;;;8.30;99.90;;;;;;5052561;28;20240;-54
2021/11/16 02:09:54;;;;;;;23.70;15.40;;;8.30;99.90;;;;;;5044072;28;20217;-54
2021/11/16 02:12:20;;;;;;;21.33;14.73;;;8.50;99.90;;;;;;5052712;28;20847;-54
2021/11/16 02:14:46;;;;;;;22.80;15.10;;;8.70;99.90;;;;;;5068910;28;20303;-53
2021/11/16 02:17:11;;;;;;;22.23;15.20;;;8.60;99.90;;;;;;5051335;28;20448;-54
2021/11/16 02:19:37;;;;;;;26.20;15.23;;;8.50;99.90;;;;;;5051614;28;20189;-54
2021/11/16 02:22:03;;;;;;;21.15;14.38;;;8.10;99.90;;;;;;5052185;28;20191;-54
2021/11/16 02:24:29;;;;;;;21.13;14.33;;;8.20;99.90;;;;;;5048326;28;20280;-54
2021/11/16 02:26:55;;;;;;;23.70;15.60;;;8.30;99.90;;;;;;5052977;28;20458;-54
2021/11/16 02:29:21;;;;;;;22.30;15.77;;;8.20;99.90;;;;;;5067539;28;20185;-54
2021/11/16 02:31:54;;;;;;;20.43;14.77;;;8.30;99.90;;;;;;5068069;28;20433;-53
2021/11/16 02:34:20;;;;;;;23.63;15.55;;;8.40;99.90;;;;;;5050588;28;20583;-55
2021/11/16 02:36:45;;;;;;;23.87;15.53;;;8.40;99.90;;;;;;5049649;28;20185;-53
2021/11/16 02:39:13;;;;;;;23.27;15.13;;;8.10;99.90;;;;;;5049958;28;20599;-54
2021/11/16 02:41:40;;;;;;;22.95;16.20;;;8.40;99.90;;;;;;5051125;28;20208;-54
2021/11/16 02:44:07;;;;;;;20.63;15.32;;;8.30;99.90;;;;;;5052998;28;20181;-53
2021/11/16 02:46:33;;;;;;;21.13;14.50;;;8.50;99.90;;;;;;5051980;28;20190;-54
2021/11/16 02:48:59;;;;;;;20.63;14.20;;;8.40;99.90;;;;;;5044369;28;20546;-54
2021/11/16 02:51:26;;;;;;;24.02;15.13;;;8.20;99.90;;;;;;5054465;28;20508;-54
2021/11/16 02:53:51;;;;;;;20.17;15.10;;;8.10;99.90;;;;;;5039550;28;20182;-54
2021/11/16 02:56:17;;;;;;;21.03;14.93;;;8.40;99.90;;;;;;5051723;28;20593;-54
2021/11/16 02:58:43;;;;;;;23.50;16.75;;;8.70;99.90;;;;;;5070401;28;20634;-54
2021/11/16 03:01:14;;;;;;;23.25;15.82;;;8.40;99.90;;;;;;5061258;28;20295;-53
2021/11/16 03:03:42;;;;;;;26.35;16.80;;;8.10;99.90;;;;;;5052504;28;20186;-53
2021/11/16 03:06:08;;;;;;;23.40;15.18;;;8.20;99.90;;;;;;5052721;28;20232;-54
2021/11/16 03:08:35;;;;;;;23.58;16.42;;;8.20;99.90;;;;;;5029788;28;20182;-53
2021/11/16 03:11:06;;;;;;;23.25;16.27;;;8.30;99.90;;;;;;5049128;28;20201;-53
2021/11/16 03:13:36;;;;;;;23.95;15.80;;;7.70;99.90;;;;;;5051798;28;20247;-56
2021/11/16 03:16:15;;;;;;;20.52;14.55;;;8.10;99.90;;;;;;5065398;28;20300;-52
2021/11/16 03:18:51;;;;;;;24.45;14.90;;;8.10;99.90;;;;;;5041050;28;20178;-53
2021/11/16 03:21:18;;;;;;;21.20;14.85;;;8.20;99.90;;;;;;5063267;28;20205;-53
2021/11/16 03:23:45;;;;;;;23.45;15.07;;;8.20;99.90;;;;;;5043247;28;20574;-53
2021/11/16 03:26:13;;;;;;;21.60;15.52;;;8.30;99.90;;;;;;5051396;28;20606;-53
2021/11/16 03:28:44;;;;;;;19.83;14.60;;;8.20;99.90;;;;;;5059734;28;20245;-54
2021/11/16 03:31:27;;;;;;;19.52;14.38;;;8.20;99.90;;;;;;5066352;28;20211;-53
2021/11/16 03:33:53;;;;;;;23.95;15.48;;;8.30;99.90;;;;;;5054908;28;20193;-53
2021/11/16 03:36:20;;;;;;;23.57;15.90;;;8.10;99.90;;;;;;5055181;28;20185;-53
2021/11/16 03:38:47;;;;;;;20.92;14.98;;;8.50;99.90;;;;;;5052002;28;20446;-54
2021/11/16 03:41:14;;;;;;;22.38;14.02;;;8.30;99.90;;;;;;5057040;28;20201;-52
2021/11/16 03:43:40;;;;;;;26.80;15.20;;;8.10;99.90;;;;;;5063162;28;20238;-54
2021/11/16 03:46:07;;;;;;;21.35;14.25;;;8.20;99.90;;;;;;5041581;28;20204;-53
2021/11/16 03:48:32;;;;;;;23.40;15.60;;;8.20;99.90;;;;;;5049641;28;20189;-54
2021/11/16 03:50:58;;;;;;;23.83;14.67;;;8.00;99.90;;;;;;5064191;28;20205;-53
2021/11/16 03:53:24;;;;;;;24.00;15.20;;;7.50;99.90;;;;;;5053877;28;20277;-54
2021/11/16 03:55:50;;;;;;;21.67;15.10;;;8.00;99.90;;;;;;5043816;28;20514;-53
2021/11/16 03:58:21;;;;;;;26.17;15.40;;;8.10;99.90;;;;;;5049053;28;20494;-54
2021/11/16 04:00:52;;;;;;;20.08;15.82;;;8.30;99.90;;;;;;5047389;28;20809;-54
2021/11/16 04:03:20;;;;;;;22.83;15.25;;;8.20;99.90;;;;;;5051008;28;20608;-54
2021/11/16 04:05:46;;;;;;;22.80;14.63;;;8.10;99.90;;;;;;5050701;28;20184;-54
2021/11/16 04:08:12;;;;;;;20.80;14.55;;;8.40;99.90;;;;;;5062498;28;20600;-54
2021/11/16 04:10:37;;;;;;;22.37;15.80;;;8.10;99.90;;;;;;5050610;28;20213;-53
2021/11/16 04:13:03;;;;;;;20.47;14.47;;;8.10;99.90;;;;;;5050692;28;20186;-53
2021/11/16 04:15:32;;;;;;;24.13;15.48;;;8.00;99.90;;;;;;5051930;28;20565;-53
2021/11/16 04:18:00;;;;;;;21.15;13.93;;;8.10;99.90;;;;;;5033509;28;20177;-53
2021/11/16 04:20:29;;;;;;;21.85;14.13;;;8.20;99.90;;;;;;5049711;28;20205;-54
2021/11/16 04:22:56;;;;;;;21.25;15.40;;;8.20;99.90;;;;;;5049549;28;20193;-53
2021/11/16 04:25:23;;;;;;;23.70;13.98;;;7.90;99.90;;;;;;5050600;28;20212;-53
2021/11/16 04:27:49;;;;;;;21.88;14.60;;;7.80;99.90;;;;;;5040509;28;20225;-53
2021/11/16 04:30:17;;;;;;;26.17;14.77;;;7.50;99.90;;;;;;5053839;28;20207;-54
2021/11/16 04:32:43;;;;;;;23.95;15.85;;;8.00;99.90;;;;;;5056090;28;20273;-53
2021/11/16 04:35:10;;;;;;;25.23;16.10;;;8.10;99.90;;;;;;5047442;28;20205;-53
2021/11/16 04:37:39;;;;;;;27.50;15.35;;;8.10;99.90;;;;;;5049223;28;20181;-53
2021/11/16 04:40:10;;;;;;;22.15;14.38;;;8.10;99.90;;;;;;5048203;28;20283;-53
2021/11/16 04:42:37;;;;;;;24.23;16.50;;;8.20;99.90;;;;;;5055690;28;20231;-53
2021/11/16 04:45:09;;;;;;;22.50;14.80;;;8.20;99.90;;;;;;5060717;28;20227;-53
2021/11/16 04:47:44;;;;;;;22.27;14.65;;;8.00;99.90;;;;;;5052032;28;20189;-52
2021/11/16 04:50:18;;;;;;;21.10;14.30;;;7.80;99.90;;;;;;5052841;28;20200;-54
2021/11/16 04:53:08;;;;;;;23.45;14.63;;;8.00;99.90;;;;;;5051538;28;20216;-54
2021/11/16 05:03:42;;;;;;;21.60;14.70;;;7.90;99.90;;;;;;5047537;28;20677;-53
2021/11/16 05:06:08;;;;;;;20.73;14.43;;;8.20;99.90;;;;;;5049890;28;20189;-54
2021/11/16 05:08:39;;;;;;;20.90;13.98;;;7.90;99.90;;;;;;5035675;28;20210;-53
2021/11/16 05:11:05;;;;;;;21.80;15.20;;;8.00;99.90;;;;;;5041828;28;20706;-53
2021/11/16 05:13:31;;;;;;;23.38;15.15;;;8.20;99.90;;;;;;5049959;28;20185;-53
2021/11/16 05:15:57;;;;;;;21.50;14.13;;;8.10;99.90;;;;;;5031412;28;20210;-53
2021/11/16 05:18:22;;;;;;;21.80;14.70;;;8.00;99.90;;;;;;5049202;28;20178;-53
2021/11/16 05:20:48;;;;;;;23.77;14.67;;;7.60;99.90;;;;;;5046296;28;20678;-54
2021/11/16 05:23:15;;;;;;;23.97;14.50;;;7.90;99.90;;;;;;5046427;28;20184;-54
2021/11/16 05:25:40;;;;;;;22.80;14.48;;;7.50;99.90;;;;;;5049175;28;20185;-53
2021/11/16 05:28:07;;;;;;;24.50;15.27;;;7.80;99.90;;;;;;5053433;28;20196;-53
2021/11/16 05:30:35;;;;;;;25.95;15.85;;;7.30;99.90;;;;;;5039911;28;20639;-54
2021/11/16 05:33:00;;;;;;;21.80;14.70;;;8.00;99.90;;;;;;5045631;28;20236;-54
2021/11/16 05:35:26;;;;;;;25.37;15.90;;;7.90;99.90;;;;;;5046311;28;20213;-53
2021/11/16 05:37:52;;;;;;;21.37;14.50;;;7.90;99.90;;;;;;5052094;28;20173;-55
2021/11/16 05:40:17;;;;;;;25.67;15.40;;;8.20;99.90;;;;;;5056603;28;20451;-54
2021/11/16 05:42:43;;;;;;;20.97;14.40;;;7.70;99.90;;;;;;5064826;28;20642;-54
2021/11/16 05:45:09;;;;;;;26.03;14.83;;;7.70;99.90;;;;;;5047350;28;20186;-53
2021/11/16 05:47:38;;;;;;;24.40;14.70;;;7.70;99.90;;;;;;5040376;28;20201;-54
2021/11/16 05:50:05;;;;;;;21.73;14.80;;;7.40;99.90;;;;;;5069257;28;20564;-54
2021/11/16 05:52:31;;;;;;;23.73;14.35;;;7.70;99.90;;;;;;5053092;28;20208;-54
2021/11/16 05:54:57;;;;;;;23.43;15.30;;;7.80;99.90;;;;;;5064147;28;20671;-54
2021/11/16 05:57:23;;;;;;;21.50;12.98;;;7.60;99.90;;;;;;5056492;28;20654;-53
2021/11/16 05:59:48;;;;;;;22.37;14.47;;;7.80;99.90;;;;;;5053119;28;20212;-54
2021/11/16 06:02:14;;;;;;;21.47;13.57;;;7.80;99.90;;;;;;5049753;28;20244;-53
2021/11/16 06:04:40;;;;;;;22.93;14.53;;;7.80;99.90;;;;;;5048385;28;20189;-54
2021/11/16 06:07:06;;;;;;;20.80;13.90;;;7.70;99.90;;;;;;5051052;28;20208;-54
2021/11/16 06:09:32;;;;;;;23.02;13.95;;;7.10;99.90;;;;;;5048477;28;20468;-54
2021/11/16 06:11:59;;;;;;;25.42;14.85;;;7.70;99.90;;;;;;5063273;28;20196;-54
2021/11/16 06:14:25;;;;;;;21.55;14.80;;;7.90;99.90;;;;;;5046473;28;20240;-54
2021/11/16 06:16:52;;;;;;;21.65;14.90;;;7.80;99.90;;;;;;5058387;28;20207;-55
2021/11/16 06:19:19;;;;;;;20.08;13.93;;;7.60;99.90;;;;;;5049195;28;20266;-54
2021/11/16 06:21:45;;;;;;;19.40;13.13;;;7.80;99.90;;;;;;5072366;28;20545;-54
2021/11/16 06:24:11;;;;;;;21.55;14.38;;;7.80;99.90;;;;;;5046269;28;20247;-54
2021/11/16 06:26:37;;;;;;;21.47;13.43;;;7.90;99.90;;;;;;5042785;28;20198;-54
2021/11/16 06:29:05;;;;;;;23.13;13.83;;;7.70;99.90;;;;;;5062817;28;20414;-54
2021/11/16 06:31:31;;;;;;;23.85;14.65;;;7.60;99.90;;;;;;5046245;28;20201;-54
2021/11/16 06:34:03;;;;;;;16.95;12.70;;;7.70;99.90;;;;;;5057908;28;20192;-53
2021/11/16 06:36:33;;;;;;;21.17;13.18;;;7.50;99.90;;;;;;5040921;28;20194;-54
2021/11/16 06:39:01;;;;;;;17.90;12.25;;;7.50;99.90;;;;;;5040679;28;20197;-53
2021/11/16 06:41:27;;;;;;;17.05;12.70;;;7.50;99.90;;;;;;5067329;28;20206;-54
2021/11/16 06:43:52;;;;;;;19.65;12.60;;;7.50;99.90;;;;;;5054605;28;20185;-54
2021/11/16 06:46:18;;;;;;;19.43;11.83;;;7.40;99.90;;;;;;5042021;28;20173;-51
2021/11/16 06:48:44;;;;;;;19.83;14.00;;;7.60;99.90;;;;;;5043592;28;20565;-52
2021/11/16 06:51:10;;;;;;;21.38;12.70;;;7.70;99.90;;;;;;5049994;28;20197;-51
2021/11/16 06:53:37;;;;;;;18.77;12.25;;;7.60;99.90;;;;;;5049777;28;20185;-51
2021/11/16 06:56:05;;;;;;;17.77;12.27;;;7.80;99.90;;;;;;5053887;28;20222;-52
2021/11/16 06:58:35;;;;;;;19.75;12.40;;;7.60;99.90;;;;;;5054817;28;20190;-51
2021/11/16 07:01:05;;;;;;;19.40;11.90;;;7.60;99.90;;;;;;5070292;28;20203;-51
2021/11/16 07:03:32;;;;;;;16.58;10.90;;;7.20;99.90;;;;;;5050927;28;20534;-51
2021/11/16 07:06:02;;;;;;;16.08;12.05;;;7.60;99.90;;;;;;5042126;28;20227;-54
2021/11/16 07:08:43;;;;;;;17.55;12.73;;;7.70;99.90;;;;;;5046589;28;20179;-53
2021/11/16 07:11:20;;;;;;;18.80;12.35;;;7.30;99.90;;;;;;5055112;28;20216;-53
2021/11/16 07:14:07;;;;;;;15.70;12.00;;;7.50;99.90;;;;;;5053530;28;20218;-52
2021/11/16 07:16:41;;;;;;;18.27;12.70;;;7.40;99.90;;;;;;5053256;28;20195;-51
2021/11/16 07:19:08;;;;;;;14.35;11.00;;;7.70;99.90;;;;;;5052997;28;20174;-52
2021/11/16 07:21:55;;;;;;;16.15;11.73;;;7.80;99.90;;;;;;5053891;28;20255;-52
2021/11/16 07:24:26;;;;;;;15.60;11.50;;;7.90;99.90;;;;;;5052539;28;20446;-52
2021/11/16 07:27:02;;;;;;;16.77;11.77;;;7.90;99.90;;;;;;5065437;28;20703;-50
2021/11/16 07:29:50;;;;;;;14.70;10.98;;;7.50;99.90;;;;;;5064525;28;20260;-53
2021/11/16 07:32:26;;;;;;;16.73;12.32;;;7.70;99.90;;;;;;5040606;28;20195;-50
2021/11/16 07:35:02;;;;;;;21.75;13.25;;;7.90;99.90;;;;;;5057618;28;20589;-51
2021/11/16 07:37:32;;;;;;;20.20;11.88;;;7.70;99.90;;;;;;5044681;28;20183;-51
2021/11/16 07:40:03;;;;;;;16.80;11.68;;;7.60;99.90;;;;;;5055049;28;20220;-50
2021/11/16 07:42:33;;;;;;;18.35;11.40;;;7.90;99.90;;;;;;5052693;28;20194;-53
2021/11/16 07:45:19;;;;;;;17.17;11.35;;;7.80;99.90;;;;;;5043489;28;20179;-52
2021/11/16 07:47:54;;;;;;;17.58;11.60;;;7.70;99.90;;;;;;5064676;28;20185;-52
2021/11/16 07:50:31;;;;;;;17.70;11.23;;;8.00;99.90;;;;;;5050724;28;20201;-53
2021/11/16 07:53:26;;;;;;;17.05;11.15;;;8.10;99.90;;;;;;5057171;28;20193;-53
2021/11/16 07:56:14;;;;;;;17.25;10.80;;;8.10;99.90;;;;;;5045036;28;20686;-53
2021/11/16 07:58:50;;;;;;;16.17;11.40;;;8.00;99.90;;;;;;5058523;28;20177;-53
2021/11/16 08:01:27;;;;;;;20.25;12.32;;;8.20;99.90;;;;;;5051978;28;20212;-53
2021/11/16 08:03:59;;;;;;;17.48;11.73;;;8.10;99.90;;;;;;5043087;28;20192;-52
2021/11/16 08:06:34;;;;;;;16.00;10.98;;;8.00;99.90;;;;;;5056719;28;20358;-51
2021/11/16 08:09:10;;;;;;;16.10;11.52;;;8.30;99.90;;;;;;5048828;28;20201;-52
2021/11/16 08:11:44;;;;;;;16.67;11.23;;;8.40;99.90;;;;;;5050289;28;20219;-51
2021/11/16 08:14:15;;;;;;;15.98;11.05;;;8.10;99.90;;;;;;5055741;28;20556;-51
2021/11/16 08:17:09;;;;;;;15.95;11.40;;;8.50;99.90;;;;;;5051102;28;20182;-51
2021/11/16 08:19:38;;;;;;;18.73;12.20;;;8.30;99.90;;;;;;5053202;28;20231;-51
2021/11/16 08:22:13;;;;;;;23.10;13.20;;;8.10;99.90;;;;;;5063939;28;20173;-51
2021/11/16 08:24:41;;;;;;;18.65;12.20;;;8.30;99.90;;;;;;5058593;28;20208;-54
2021/11/16 08:27:14;;;;;;;20.33;12.38;;;8.30;99.90;;;;;;5068039;28;20197;-54
2021/11/16 08:29:43;;;;;;;17.52;12.85;;;7.90;99.90;;;;;;5056599;28;20205;-53
2021/11/16 08:32:14;;;;;;;16.55;11.90;;;8.00;99.90;;;;;;5059121;28;20212;-53
2021/11/16 08:34:43;;;;;;;19.73;12.82;;;8.40;99.90;;;;;;5049820;28;20213;-52
2021/11/16 08:37:11;;;;;;;16.58;11.23;;;8.30;99.90;;;;;;5032472;28;20178;-51
2021/11/16 08:39:42;;;;;;;22.75;14.23;;;8.30;99.90;;;;;;5051190;28;20287;-54
2021/11/16 08:42:21;;;;;;;17.90;12.20;;;8.50;99.90;;;;;;5050204;28;20201;-53
2021/11/16 08:45:12;;;;;;;18.40;12.55;;;8.30;99.90;;;;;;5052451;28;20207;-52
2021/11/16 08:47:44;;;;;;;16.77;11.60;;;8.20;99.90;;;;;;5044540;28;20207;-52
2021/11/16 08:50:33;;;;;;;19.58;11.30;;;8.40;99.90;;;;;;5053053;28;20209;-53
2021/11/16 08:53:06;;;;;;;18.35;11.88;;;8.00;99.90;;;;;;5056604;28;20186;-52
2021/11/16 08:55:33;;;;;;;17.98;11.18;;;7.80;99.90;;;;;;5059589;28;20629;-50
2021/11/16 08:58:01;;;;;;;17.92;11.57;;;8.40;99.90;;;;;;5047640;28;20178;-50
2021/11/16 09:00:33;;;;;;;17.30;11.23;;;8.40;99.90;;;;;;5061221;28;20560;-54
2021/11/16 09:03:15;;;;;;;21.10;12.32;;;8.30;99.90;;;;;;5056826;28;20179;-55
2021/11/16 09:05:45;;;;;;;20.33;12.48;;;8.50;99.90;;;;;;5055317;28;20185;-53
2021/11/16 09:08:23;;;;;;;17.63;11.63;;;8.20;99.90;;;;;;5054223;28;20188;-54
2021/11/16 09:10:52;;;;;;;25.98;11.73;;;8.20;99.90;;;;;;5039495;28;20209;-52
2021/11/16 09:13:22;;;;;;;19.13;11.73;;;8.10;99.90;;;;;;5057289;28;20189;-52
2021/11/16 09:15:53;;;;;;;18.63;12.40;;;8.40;99.90;;;;;;5053156;28;20209;-52
2021/11/16 09:18:36;;;;;;;20.17;11.05;;;8.00;99.90;;;;;;5057900;28;20203;-53
2021/11/16 09:21:06;;;;;;;12.20;9.05;;;7.90;99.90;;;;;;5065210;28;20578;-53
2021/11/16 09:23:35;;;;;;;15.75;9.35;;;8.20;99.90;;;;;;5056249;28;20201;-52
2021/11/16 09:26:15;;;;;;;15.55;9.00;;;7.50;99.90;;;;;;5052778;28;20239;-52
2021/11/16 09:28:56;;;;;;;13.30;9.13;;;8.20;99.90;;;;;;5066522;28;20250;-53
2021/11/16 09:31:30;;;;;;;12.23;8.90;;;8.10;99.90;;;;;;5047018;28;20634;-53
2021/11/16 09:34:04;;;;;;;11.82;8.35;;;8.20;99.90;;;;;;5060093;28;20673;-53
2021/11/16 09:36:37;;;;;;;11.40;7.72;;;8.10;99.90;;;;;;5072346;28;20299;-51
2021/11/16 09:39:10;;;;;;;17.63;9.48;;;8.40;99.90;;;;;;5056782;28;20563;-51
2021/11/16 09:41:40;;;;;;;8.98;7.10;;;8.10;99.90;;;;;;5060440;28;20201;-52
2021/11/16 09:44:11;;;;;;;12.52;7.43;;;8.00;99.90;;;;;;5057034;28;20273;-51
2021/11/16 09:46:54;;;;;;;9.20;6.90;;;8.20;99.90;;;;;;5060265;28;20185;-52
2021/11/16 09:49:34;;;;;;;10.23;6.60;;;8.20;99.90;;;;;;5053418;28;20528;-52
2021/11/16 09:52:12;;;;;;;10.70;8.13;;;8.20;99.90;;;;;;5055722;28;20185;-52
2021/11/16 09:54:51;;;;;;;9.98;6.15;;;8.30;99.90;;;;;;5051266;28;20241;-54
2021/11/16 09:57:26;;;;;;;10.50;5.45;;;8.30;99.90;;;;;;5057403;28;20197;-54
2021/11/16 10:00:12;;;;;;;9.00;5.63;;;8.50;99.90;;;;;;5058656;28;20280;-51
2021/11/16 10:02:44;;;;;;;10.55;6.32;;;8.30;99.90;;;;;;5057223;28;20197;-51
2021/11/16 10:05:20;;;;;;;9.63;6.45;;;8.60;99.90;;;;;;5053641;28;20181;-51
2021/11/16 10:07:51;;;;;;;10.68;7.60;;;8.40;99.90;;;;;;5057514;28;20217;-52
2021/11/16 10:10:19;;;;;;;9.98;7.43;;;8.50;99.90;;;;;;5037480;28;20219;-54
2021/11/16 10:12:53;;;;;;;10.02;6.35;;;8.30;99.90;;;;;;5054804;28;20269;-52
2021/11/16 10:15:21;;;;;;;11.18;8.07;;;8.10;99.90;;;;;;5064133;28;20231;-51
2021/11/16 10:17:49;;;;;;;10.32;6.95;;;7.80;99.90;;;;;;5050858;28;20181;-51
2021/11/16 10:20:18;;;;;;;16.42;7.80;;;8.50;99.90;;;;;;5059867;28;20500;-50
2021/11/16 10:22:49;;;;;;;11.43;7.30;;;8.40;99.90;;;;;;5056337;28;20249;-50
2021/11/16 10:25:18;;;;;;;10.70;8.02;;;8.20;99.90;;;;;;5053083;28;20616;-52
2021/11/16 10:27:46;;;;;;;11.00;7.70;;;8.70;99.90;;;;;;5053829;28;20186;-50
2021/11/16 10:30:24;;;;;;;9.77;6.60;;;8.70;99.90;;;;;;5063666;28;20673;-50
2021/11/16 10:33:19;;;;;;;10.52;6.45;;;8.60;99.90;;;;;;5059876;28;20188;-51
2021/11/16 10:35:55;;;;;;;10.27;6.30;;;8.60;99.90;;;;;;5055893;28;20553;-51
2021/11/16 10:38:31;;;;;;;7.40;5.72;;;8.60;99.90;;;;;;5043351;28;20181;-50
2021/11/16 10:41:00;;;;;;;8.32;5.80;;;8.60;99.90;;;;;;5054535;28;20240;-50
2021/11/16 10:43:48;;;;;;;10.32;5.93;;;8.50;99.90;;;;;;5053122;28;20185;-50
2021/11/16 10:46:18;;;;;;;9.48;5.80;;;8.60;99.90;;;;;;5053148;28;20212;-53
2021/11/16 10:48:44;;;;;;;6.38;5.18;;;8.60;99.90;;;;;;5055159;28;20326;-54
2021/11/16 10:51:12;;;;;;;8.50;6.15;;;8.30;99.90;;;;;;5060178;28;20623;-53
2021/11/16 10:53:45;;;;;;;11.50;6.57;;;8.40;99.90;;;;;;5053391;28;20538;-54
2021/11/16 10:56:14;;;;;;;10.10;6.25;;;8.70;99.90;;;;;;5051395;28;20290;-52
2021/11/16 10:58:41;;;;;;;9.38;5.95;;;8.60;99.90;;;;;;5058643;28;20260;-52
2021/11/16 11:01:17;;;;;;;8.93;6.78;;;8.70;99.90;;;;;;5052982;28;20198;-51
2021/11/16 11:03:45;;;;;;;11.52;7.78;;;8.50;99.90;;;;;;5062050;28;20185;-53
2021/11/16 11:06:19;;;;;;;11.82;7.03;;;8.00;99.90;;;;;;5050050;28;20182;-54
2021/11/16 11:08:53;;;;;;;8.50;5.95;;;8.50;99.90;;;;;;5044960;28;20700;-55
2021/11/16 11:11:28;;;;;;;15.40;6.90;;;8.70;99.90;;;;;;5046205;28;20717;-52
2021/11/16 11:14:06;;;;;;;11.13;7.13;;;8.60;99.90;;;;;;5058871;28;20201;-53
2021/11/16 11:16:35;;;;;;;9.02;5.82;;;8.50;99.90;;;;;;5025242;28;20214;-51
2021/11/16 11:19:00;;;;;;;11.95;8.35;;;8.80;99.90;;;;;;5063262;28;20189;-51
2021/11/16 11:21:37;;;;;;;9.53;6.90;;;8.50;99.90;;;;;;5058415;28;20202;-51
2021/11/16 11:24:12;;;;;;;11.93;6.72;;;8.40;99.90;;;;;;5051176;28;20420;-52
2021/11/16 11:26:53;;;;;;;11.18;6.45;;;8.50;99.90;;;;;;5051505;28;20177;-52
2021/11/16 11:29:30;;;;;;;8.23;5.85;;;8.40;99.90;;;;;;5058217;28;20181;-52
2021/11/16 11:31:58;;;;;;;8.15;5.82;;;8.50;99.90;;;;;;5035241;28;20194;-52
2021/11/16 11:34:46;;;;;;;6.80;5.47;;;8.90;99.90;;;;;;5030100;28;20189;-53
2021/11/16 11:37:23;;;;;;;7.50;6.18;;;8.60;99.90;;;;;;5028066;28;20643;-52
2021/11/16 11:40:07;;;;;;;11.55;7.60;;;8.70;99.90;;;;;;5040687;28;20221;-53
2021/11/16 11:42:36;;;;;;;8.55;6.35;;;8.60;99.90;;;;;;5050772;28;20193;-52
2021/11/16 11:45:08;;;;;;;7.63;5.90;;;8.80;99.90;;;;;;5037532;28;20276;-52
2021/11/16 11:47:39;;;;;;;10.43;6.38;;;8.60;99.90;;;;;;5050394;28;20176;-52
2021/11/16 11:50:26;;;;;;;9.75;6.05;;;8.60;99.90;;;;;;5039157;28;20546;-52
2021/11/16 11:52:52;;;;;;;7.75;5.05;;;8.70;99.90;;;;;;5032000;28;20182;-52
2021/11/16 11:55:18;;;;;;;8.00;4.70;;;8.50;99.90;;;;;;5040833;28;20684;-53
2021/11/16 11:57:44;;;;;;;8.38;5.50;;;8.60;99.90;;;;;;5054740;28;20520;-52
2021/11/16 12:00:11;;;;;;;6.30;4.82;;;8.60;99.90;;;;;;5055424;28;20678;-52
2021/11/16 12:02:38;;;;;;;8.63;5.47;;;8.50;99.90;;;;;;5053106;28;20221;-52
2021/11/16 12:05:05;;;;;;;6.93;5.95;;;8.80;99.90;;;;;;5057089;28;20234;-52
2021/11/16 12:07:31;;;;;;;5.95;4.85;;;8.50;99.90;;;;;;5064475;28;20180;-53
2021/11/16 12:09:57;;;;;;;9.07;5.53;;;8.60;99.90;;;;;;5047573;28;20571;-54
2021/11/16 12:12:23;;;;;;;7.82;5.03;;;8.60;99.90;;;;;;5049908;28;20482;-54
2021/11/16 12:15:11;;;;;;;8.77;5.68;;;8.30;99.90;;;;;;5049804;28;20201;-53
2021/11/16 12:17:57;;;;;;;5.20;4.28;;;8.90;99.90;;;;;;5050055;28;20181;-53
2021/11/16 12:20:48;;;;;;;9.85;5.43;;;9.00;99.90;;;;;;5056518;28;20565;-54
2021/11/16 12:23:19;;;;;;;6.72;4.50;;;8.60;99.90;;;;;;5039271;28;20198;-54
2021/11/16 12:25:47;;;;;;;5.20;4.60;;;8.80;99.90;;;;;;5022142;28;20182;-52
2021/11/16 12:28:31;;;;;;;6.40;4.80;;;8.70;99.90;;;;;;5059731;28;20235;-51
2021/11/16 12:30:59;;;;;;;5.90;5.32;;;8.80;99.90;;;;;;5055066;28;20788;-53
2021/11/16 12:33:48;;;;;;;7.07;5.40;;;8.50;99.90;;;;;;5048005;28;20193;-53
2021/11/16 12:36:31;;;;;;;7.53;5.50;;;8.90;99.90;;;;;;5044011;28;20205;-53
2021/11/16 12:39:10;;;;;;;7.38;4.88;;;8.80;99.90;;;;;;5056238;28;20284;-52
2021/11/16 12:41:40;;;;;;;7.95;5.10;;;8.90;99.90;;;;;;5051026;28;20209;-51
2021/11/16 12:44:08;;;;;;;6.35;4.97;;;8.80;99.90;;;;;;5054189;28;20235;-50
2021/11/16 12:46:36;;;;;;;5.38;4.72;;;8.60;99.90;;;;;;5047466;28;20181;-52
2021/11/16 12:49:05;;;;;;;7.63;5.03;;;8.80;99.90;;;;;;5049566;28;20525;-53
2021/11/16 12:51:36;;;;;;;6.45;4.90;;;8.90;99.90;;;;;;5051321;28;20210;-53
2021/11/16 12:54:09;;;;;;;6.05;4.63;;;8.80;99.90;;;;;;5022929;28;20192;-51
2021/11/16 12:56:45;;;;;;;6.72;4.80;;;8.80;99.90;;;;;;5043277;28;20628;-52
2021/11/16 12:59:13;;;;;;;7.45;5.03;;;8.60;99.90;;;;;;5053581;28;20239;-53
2021/11/16 13:01:45;;;;;;;6.75;4.63;;;8.60;99.90;;;;;;5057199;28;20263;-52
2021/11/16 13:04:13;;;;;;;6.25;4.63;;;8.70;99.90;;;;;;5049287;28;20595;-52
2021/11/16 13:06:41;;;;;;;7.00;5.40;;;8.40;99.90;;;;;;5049636;28;20554;-51